sensor_id;sensor_type;location;lat;lon;timestamp;pressure;altitude;pressure_sealevel;temperature;humidity
65534;BME280;53640;55.838;37.184;2022-10-16T00:00:00;100232.75;;;2.34;52.15
65534;BME280;53640;55.838;37.184;2022-10-16T00:02:29;100310.69;;;2.86;51.79
65534;BME280;53640;55.838;37.184;2022-10-16T00:05:01;100238.09;;;2.34;52.00
65534;BME280;53640;55.838;37.184;2022-10-16T00:07:56;100216.72;;;2.14;52.31
65534;BME280;53640;55.838;37.184;2022-10-16T00:10:37;100223.19;;;2.12;52.20
65534;BME280;53640;55.838;37.184;2022-10-16T00:13:21;100244.13;;;2.26;52.08
65534;BME280;53640;55.838;37.184;2022-10-16T00:16:11;100224.88;;;2.13;52.13
65534;BME280;53640;55.838;37.184;2022-10-16T00:18:46;100228.97;;;2.07;52.12
65534;BME280;53640;55.838;37.184;2022-10-16T00:21:18;100253.28;;;2.23;51.93
65534;BME280;53640;55.838;37.184;2022-10-16T00:24:09;100227.38;;;2.14;52.08
65534;BME280;53640;55.838;37.184;2022-10-16T00:26:41;100248.22;;;2.20;52.09
65534;BME280;53640;55.838;37.184;2022-10-16T00:29:11;100387.91;;;3.08;52.03
65534;BME280;53640;55.838;37.184;2022-10-16T00:31:38;100232.75;;;2.04;52.39
65534;BME280;53640;55.838;37.184;2022-10-16T00:34:11;100234.44;;;1.96;52.14
65534;BME280;53640;55.838;37.184;2022-10-16T00:36:41;100244.00;;;2.08;52.44
65534;BME280;53640;55.838;37.184;2022-10-16T00:39:09;100260.72;;;2.20;52.48
65534;BME280;53640;55.838;37.184;2022-10-16T00:41:36;100301.63;;;2.40;52.63
65534;BME280;53640;55.838;37.184;2022-10-16T00:47:19;100337.31;;;2.48;52.71
65534;BME280;53640;55.838;37.184;2022-10-16T00:49:52;100313.03;;;2.42;52.69
65534;BME280;53640;55.838;37.184;2022-10-16T00:52:20;100307.94;;;2.39;52.63
65534;BME280;53640;55.838;37.184;2022-10-16T00:54:48;100272.41;;;2.19;52.79
65534;BME280;53640;55.838;37.184;2022-10-16T00:57:21;100342.13;;;2.54;52.43
65534;BME280;53640;55.838;37.184;2022-10-16T00:59:53;100250.19;;;1.89;52.77
65534;BME280;53640;55.838;37.184;2022-10-16T01:02:27;100373.75;;;2.69;52.59
65534;BME280;53640;55.838;37.184;2022-10-16T01:04:57;100306.69;;;2.23;52.79
65534;BME280;53640;55.838;37.184;2022-10-16T01:10:59;100409.06;;;2.72;52.96
65534;BME280;53640;55.838;37.184;2022-10-16T01:14:26;100335.22;;;2.23;53.31
65534;BME280;53640;55.838;37.184;2022-10-16T01:17:06;100279.66;;;1.88;53.29
65534;BME280;53640;55.838;37.184;2022-10-16T01:23:10;100340.44;;;2.15;53.71
65534;BME280;53640;55.838;37.184;2022-10-16T01:25:59;100360.53;;;2.28;53.83
65534;BME280;53640;55.838;37.184;2022-10-16T01:28:41;100265.72;;;1.55;53.66
65534;BME280;53640;55.838;37.184;2022-10-16T01:31:11;100273.75;;;1.65;53.53
65534;BME280;53640;55.838;37.184;2022-10-16T01:33:45;100323.09;;;1.90;53.48
65534;BME280;53640;55.838;37.184;2022-10-16T01:36:19;100378.38;;;2.18;53.67
65534;BME280;53640;55.838;37.184;2022-10-16T01:38:49;100282.88;;;1.62;53.67
65534;BME280;53640;55.838;37.184;2022-10-16T01:41:22;100323.78;;;1.92;53.38
65534;BME280;53640;55.838;37.184;2022-10-16T01:44:12;100413.69;;;2.51;53.83
65534;BME280;53640;55.838;37.184;2022-10-16T01:46:43;100265.84;;;1.53;53.47
65534;BME280;53640;55.838;37.184;2022-10-16T01:49:15;100312.41;;;1.80;53.80
65534;BME280;53640;55.838;37.184;2022-10-16T01:51:47;100302.97;;;1.76;53.69
65534;BME280;53640;55.838;37.184;2022-10-16T01:54:27;100359.38;;;1.92;53.73
65534;BME280;53640;55.838;37.184;2022-10-16T01:56:56;100421.44;;;2.44;53.75
65534;BME280;53640;55.838;37.184;2022-10-16T01:59:32;100326.63;;;1.90;53.57
65534;BME280;53640;55.838;37.184;2022-10-16T02:02:06;100358.38;;;2.03;54.31
65534;BME280;53640;55.838;37.184;2022-10-16T02:04:46;100326.19;;;1.85;54.00
65534;BME280;53640;55.838;37.184;2022-10-16T02:07:18;100393.56;;;2.08;54.63
65534;BME280;53640;55.838;37.184;2022-10-16T02:09:49;100283.47;;;1.35;54.38
65534;BME280;53640;55.838;37.184;2022-10-16T02:12:25;100413.78;;;2.11;54.97
65534;BME280;53640;55.838;37.184;2022-10-16T02:14:56;100292.06;;;1.29;54.55
65534;BME280;53640;55.838;37.184;2022-10-16T02:17:29;100270.97;;;1.26;54.30
65534;BME280;53640;55.838;37.184;2022-10-16T02:19:57;100364.81;;;1.81;54.63
65534;BME280;53640;55.838;37.184;2022-10-16T02:22:28;100420.94;;;2.10;54.85
65534;BME280;53640;55.838;37.184;2022-10-16T02:27:48;100302.03;;;1.37;54.55
65534;BME280;53640;55.838;37.184;2022-10-16T02:30:27;100371.81;;;1.72;54.51
65534;BME280;53640;55.838;37.184;2022-10-16T02:33:00;100341.84;;;1.59;54.35
65534;BME280;53640;55.838;37.184;2022-10-16T02:35:31;100295.13;;;1.24;54.89
65534;BME280;53640;55.838;37.184;2022-10-16T02:37:58;100282.59;;;1.15;54.73
65534;BME280;53640;55.838;37.184;2022-10-16T02:40:27;100339.88;;;1.51;55.09
65534;BME280;53640;55.838;37.184;2022-10-16T02:42:57;100336.06;;;1.54;54.46
65534;BME280;53640;55.838;37.184;2022-10-16T02:45:27;100307.00;;;1.20;55.03
65534;BME280;53640;55.838;37.184;2022-10-16T02:47:53;100430.06;;;1.98;55.08
65534;BME280;53640;55.838;37.184;2022-10-16T02:50:20;100381.16;;;1.57;55.25
65534;BME280;53640;55.838;37.184;2022-10-16T02:52:47;100278.19;;;1.04;54.83
65534;BME280;53640;55.838;37.184;2022-10-16T02:55:14;100286.75;;;1.08;54.98
65534;BME280;53640;55.838;37.184;2022-10-16T02:57:40;100286.66;;;1.10;55.27
65534;BME280;53640;55.838;37.184;2022-10-16T03:00:09;100272.28;;;1.01;54.86
65534;BME280;53640;55.838;37.184;2022-10-16T03:02:37;100307.31;;;1.17;54.83
65534;BME280;53640;55.838;37.184;2022-10-16T03:05:08;100351.00;;;1.36;54.98
65534;BME280;53640;55.838;37.184;2022-10-16T03:07:38;100300.94;;;1.08;55.05
65534;BME280;53640;55.838;37.184;2022-10-16T03:10:06;100288.66;;;0.96;55.02
65534;BME280;53640;55.838;37.184;2022-10-16T03:12:33;100390.69;;;1.50;55.67
65534;BME280;53640;55.838;37.184;2022-10-16T03:15:00;100288.13;;;0.81;55.14
65534;BME280;53640;55.838;37.184;2022-10-16T03:17:29;100331.09;;;1.09;55.25
65534;BME280;53640;55.838;37.184;2022-10-16T03:20:05;100360.09;;;1.23;55.46
65534;BME280;53640;55.838;37.184;2022-10-16T03:22:33;100299.13;;;0.67;56.03
65534;BME280;53640;55.838;37.184;2022-10-16T03:25:03;100372.66;;;1.12;55.86
65534;BME280;53640;55.838;37.184;2022-10-16T03:27:44;100353.56;;;1.06;55.84
65534;BME280;53640;55.838;37.184;2022-10-16T03:30:13;100350.72;;;0.98;55.93
65534;BME280;53640;55.838;37.184;2022-10-16T03:32:39;100309.78;;;0.67;55.91
65534;BME280;53640;55.838;37.184;2022-10-16T03:35:06;100397.09;;;1.17;56.30
65534;BME280;53640;55.838;37.184;2022-10-16T03:37:34;100396.00;;;1.19;55.83
65534;BME280;53640;55.838;37.184;2022-10-16T03:40:02;100328.00;;;0.62;56.27
65534;BME280;53640;55.838;37.184;2022-10-16T03:42:32;100401.34;;;1.19;55.93
65534;BME280;53640;55.838;37.184;2022-10-16T03:45:06;100356.78;;;0.89;56.17
65534;BME280;53640;55.838;37.184;2022-10-16T03:47:36;100323.09;;;0.67;55.50
65534;BME280;53640;55.838;37.184;2022-10-16T03:50:07;100310.25;;;0.51;56.11
65534;BME280;53640;55.838;37.184;2022-10-16T03:52:33;100477.50;;;1.33;56.68
65534;BME280;53640;55.838;37.184;2022-10-16T03:55:00;100401.06;;;1.01;56.56
65534;BME280;53640;55.838;37.184;2022-10-16T03:57:29;100309.41;;;0.51;56.63
65534;BME280;53640;55.838;37.184;2022-10-16T03:59:56;100437.81;;;1.19;56.85
65534;BME280;53640;55.838;37.184;2022-10-16T04:02:22;100286.69;;;0.15;57.27
65534;BME280;53640;55.838;37.184;2022-10-16T04:04:49;100301.97;;;0.13;57.10
65534;BME280;53640;55.838;37.184;2022-10-16T04:07:15;100379.31;;;0.64;57.34
65534;BME280;53640;55.838;37.184;2022-10-16T04:09:45;100354.75;;;0.40;57.45
65534;BME280;53640;55.838;37.184;2022-10-16T04:12:14;100358.19;;;0.51;57.42
65534;BME280;53640;55.838;37.184;2022-10-16T04:14:40;100349.75;;;0.46;57.09
65534;BME280;53640;55.838;37.184;2022-10-16T04:17:07;100394.78;;;0.70;56.93
65534;BME280;53640;55.838;37.184;2022-10-16T04:19:34;100356.56;;;0.60;56.74
65534;BME280;53640;55.838;37.184;2022-10-16T04:22:03;100408.38;;;0.99;56.36
65534;BME280;53640;55.838;37.184;2022-10-16T04:24:30;100336.03;;;0.51;56.56
65534;BME280;53640;55.838;37.184;2022-10-16T04:26:57;100406.28;;;1.03;56.83
65534;BME280;53640;55.838;37.184;2022-10-16T04:29:24;100314.16;;;0.47;56.16
65534;BME280;53640;55.838;37.184;2022-10-16T04:31:53;100452.59;;;1.23;56.63
65534;BME280;53640;55.838;37.184;2022-10-16T04:34:28;100359.19;;;0.71;56.47
65534;BME280;53640;55.838;37.184;2022-10-16T04:36:55;100392.38;;;0.99;56.62
65534;BME280;53640;55.838;37.184;2022-10-16T04:39:22;100416.88;;;1.14;56.62
65534;BME280;53640;55.838;37.184;2022-10-16T04:41:51;100460.91;;;1.29;57.07
65534;BME280;53640;55.838;37.184;2022-10-16T04:44:17;100342.75;;;0.66;56.51
65534;BME280;53640;55.838;37.184;2022-10-16T04:46:54;100314.97;;;0.48;56.57
65534;BME280;53640;55.838;37.184;2022-10-16T04:49:33;100311.94;;;0.52;56.62
65534;BME280;53640;55.838;37.184;2022-10-16T04:52:10;100419.09;;;1.30;56.32
65534;BME280;53640;55.838;37.184;2022-10-16T04:54:42;100329.59;;;0.74;56.46
65534;BME280;53640;55.838;37.184;2022-10-16T04:57:11;100316.59;;;0.60;56.08
65534;BME280;53640;55.838;37.184;2022-10-16T04:59:40;100342.28;;;0.82;56.44
65534;BME280;53640;55.838;37.184;2022-10-16T05:02:12;100307.13;;;0.67;56.23
65534;BME280;53640;55.838;37.184;2022-10-16T05:04:40;100440.41;;;1.51;55.97
65534;BME280;53640;55.838;37.184;2022-10-16T05:07:11;100482.44;;;1.89;56.00
65534;BME280;53640;55.838;37.184;2022-10-16T05:09:48;100496.81;;;1.98;55.75
65534;BME280;53640;55.838;37.184;2022-10-16T05:12:25;100448.16;;;1.85;55.84
65534;BME280;53640;55.838;37.184;2022-10-16T05:15:24;100407.06;;;1.66;55.72
65534;BME280;53640;55.838;37.184;2022-10-16T05:18:28;100488.06;;;2.26;55.31
65534;BME280;53640;55.838;37.184;2022-10-16T05:21:59;100407.25;;;1.84;55.16
65534;BME280;53640;55.838;37.184;2022-10-16T05:24:26;100441.34;;;2.11;55.42
65534;BME280;53640;55.838;37.184;2022-10-16T05:26:53;100357.88;;;1.69;55.00
65534;BME280;53640;55.838;37.184;2022-10-16T05:29:19;100412.69;;;2.23;54.64
65534;BME280;53640;55.838;37.184;2022-10-16T05:31:50;100358.25;;;2.04;54.75
65534;BME280;53640;55.838;37.184;2022-10-16T05:34:31;100354.19;;;2.10;54.16
65534;BME280;53640;55.838;37.184;2022-10-16T05:36:58;100358.69;;;2.29;54.17
65534;BME280;53640;55.838;37.184;2022-10-16T05:39:31;100352.09;;;2.33;53.78
65534;BME280;53640;55.838;37.184;2022-10-16T05:42:07;100344.94;;;2.43;53.13
65534;BME280;53640;55.838;37.184;2022-10-16T05:44:48;100347.34;;;2.56;53.20
65534;BME280;53640;55.838;37.184;2022-10-16T05:47:40;100359.41;;;2.70;53.26
65534;BME280;53640;55.838;37.184;2022-10-16T05:54:06;100354.47;;;2.85;52.27
65534;BME280;53640;55.838;37.184;2022-10-16T05:56:39;100411.53;;;3.22;52.76
65534;BME280;53640;55.838;37.184;2022-10-16T05:59:17;100382.00;;;3.14;51.80
65534;BME280;53640;55.838;37.184;2022-10-16T06:05:34;100427.84;;;3.86;50.99
65534;BME280;53640;55.838;37.184;2022-10-16T06:08:01;100351.31;;;3.56;50.88
65534;BME280;53640;55.838;37.184;2022-10-16T06:10:28;100520.34;;;4.72;50.28
65534;BME280;53640;55.838;37.184;2022-10-16T06:12:56;100516.28;;;4.86;49.78
65534;BME280;53640;55.838;37.184;2022-10-16T06:15:22;100453.88;;;4.66;49.81
65534;BME280;53640;55.838;37.184;2022-10-16T06:17:49;100347.88;;;4.18;49.78
65534;BME280;53640;55.838;37.184;2022-10-16T06:20:19;100424.38;;;4.84;48.91
65534;BME280;53640;55.838;37.184;2022-10-16T06:22:45;100496.97;;;5.36;47.82
65534;BME280;53640;55.838;37.184;2022-10-16T06:25:15;100460.69;;;5.14;47.29
65534;BME280;53640;55.838;37.184;2022-10-16T06:27:44;100529.94;;;5.64;47.64
65534;BME280;53640;55.838;37.184;2022-10-16T06:30:13;100387.41;;;4.96;47.19
65534;BME280;53640;55.838;37.184;2022-10-16T06:32:43;100411.75;;;5.20;47.01
65534;BME280;53640;55.838;37.184;2022-10-16T06:35:12;100403.25;;;5.25;47.08
65534;BME280;53640;55.838;37.184;2022-10-16T06:37:39;100458.78;;;5.68;46.52
65534;BME280;53640;55.838;37.184;2022-10-16T06:40:06;100451.34;;;5.62;46.58
65534;BME280;53640;55.838;37.184;2022-10-16T06:42:33;100462.59;;;5.92;46.32
65534;BME280;53640;55.838;37.184;2022-10-16T06:44:59;100409.38;;;5.61;46.56
65534;BME280;53640;55.838;37.184;2022-10-16T06:47:27;100408.56;;;5.69;46.88
65534;BME280;53640;55.838;37.184;2022-10-16T06:49:56;100393.94;;;5.72;46.10
65534;BME280;53640;55.838;37.184;2022-10-16T06:52:22;100441.53;;;6.13;46.79
65534;BME280;53640;55.838;37.184;2022-10-16T06:54:50;100493.94;;;6.60;45.88
65534;BME280;53640;55.838;37.184;2022-10-16T06:57:17;100525.31;;;6.85;45.35
65534;BME280;53640;55.838;37.184;2022-10-16T06:59:44;100517.91;;;6.96;46.00
65534;BME280;53640;55.838;37.184;2022-10-16T07:02:10;100506.47;;;6.94;45.54
65534;BME280;53640;55.838;37.184;2022-10-16T07:04:37;100500.25;;;6.93;45.09
65534;BME280;53640;55.838;37.184;2022-10-16T07:07:03;100501.28;;;7.08;44.81
65534;BME280;53640;55.838;37.184;2022-10-16T07:13:54;100424.81;;;6.60;43.57
65534;BME280;53640;55.838;37.184;2022-10-16T07:21:07;100494.03;;;7.01;44.21
65534;BME280;53640;55.838;37.184;2022-10-16T07:27:38;100420.13;;;6.79;43.75
65534;BME280;53640;55.838;37.184;2022-10-16T07:30:05;100387.00;;;6.78;44.06
65534;BME280;53640;55.838;37.184;2022-10-16T07:32:32;100461.56;;;7.35;44.27
65534;BME280;53640;55.838;37.184;2022-10-16T07:34:58;100397.09;;;7.17;43.51
65534;BME280;53640;55.838;37.184;2022-10-16T07:37:25;100472.63;;;7.64;43.24
65534;BME280;53640;55.838;37.184;2022-10-16T07:39:51;100466.19;;;7.82;43.56
65534;BME280;53640;55.838;37.184;2022-10-16T07:42:18;100401.94;;;7.54;42.45
65534;BME280;53640;55.838;37.184;2022-10-16T07:44:46;100417.03;;;7.72;41.94
65534;BME280;53640;55.838;37.184;2022-10-16T07:47:12;100438.44;;;8.12;41.52
65534;BME280;53640;55.838;37.184;2022-10-16T08:00:55;100423.72;;;9.23;39.91
65534;BME280;53640;55.838;37.184;2022-10-16T08:08:33;100451.81;;;9.90;37.98
65534;BME280;53640;55.838;37.184;2022-10-16T08:16:04;100423.44;;;10.51;36.87
65534;BME280;53640;55.838;37.184;2022-10-16T08:19:50;100410.97;;;10.93;36.38
65534;BME280;53640;55.838;37.184;2022-10-16T08:22:16;100421.66;;;11.23;35.31
65534;BME280;53640;55.838;37.184;2022-10-16T08:24:46;100454.34;;;11.71;35.46
65534;BME280;53640;55.838;37.184;2022-10-16T08:27:15;100417.69;;;11.75;34.94
65534;BME280;53640;55.838;37.184;2022-10-16T08:29:42;100415.09;;;12.02;32.95
65534;BME280;53640;55.838;37.184;2022-10-16T08:32:09;100465.81;;;12.42;33.17
65534;BME280;53640;55.838;37.184;2022-10-16T08:34:39;100430.66;;;12.28;33.45
65534;BME280;53640;55.838;37.184;2022-10-16T08:45:34;100517.53;;;13.90;32.04
65534;BME280;53640;55.838;37.184;2022-10-16T08:52:19;100422.00;;;14.05;29.82
65534;BME280;53640;55.838;37.184;2022-10-16T08:54:48;100445.56;;;14.31;29.97
65534;BME280;53640;55.838;37.184;2022-10-16T08:57:28;100452.16;;;14.55;29.94
65534;BME280;53640;55.838;37.184;2022-10-16T09:00:12;100474.84;;;14.94;29.84
65534;BME280;53640;55.838;37.184;2022-10-16T09:11:41;100496.72;;;15.50;27.40
65534;BME280;53640;55.838;37.184;2022-10-16T09:17:46;100509.00;;;15.84;28.37
65534;BME280;53640;55.838;37.184;2022-10-16T09:23:14;100519.53;;;16.43;27.36
65534;BME280;53640;55.838;37.184;2022-10-16T09:26:16;100480.44;;;16.42;26.65
65534;BME280;53640;55.838;37.184;2022-10-16T09:29:03;100433.91;;;16.30;25.45
65534;BME280;53640;55.838;37.184;2022-10-16T09:31:43;100395.44;;;16.14;26.12
65534;BME280;53640;55.838;37.184;2022-10-16T09:34:35;100431.59;;;16.64;26.12
65534;BME280;53640;55.838;37.184;2022-10-16T09:37:08;100386.38;;;16.50;25.26
65534;BME280;53640;55.838;37.184;2022-10-16T09:39:50;100440.50;;;17.01;25.45
65534;BME280;53640;55.838;37.184;2022-10-16T09:53:20;100498.34;;;17.05;24.75
65534;BME280;53640;55.838;37.184;2022-10-16T09:56:42;100405.75;;;15.93;25.14
65534;BME280;53640;55.838;37.184;2022-10-16T09:59:19;100436.00;;;16.28;25.02
65534;BME280;53640;55.838;37.184;2022-10-16T10:01:51;100476.88;;;16.42;25.31
65534;BME280;53640;55.838;37.184;2022-10-16T10:04:57;100355.84;;;15.86;25.19
65534;BME280;53640;55.838;37.184;2022-10-16T10:07:37;100456.09;;;16.41;24.76
65534;BME280;53640;55.838;37.184;2022-10-16T10:10:31;100370.56;;;15.85;25.45
65534;BME280;53640;55.838;37.184;2022-10-16T10:13:24;100394.16;;;15.98;25.19
65534;BME280;53640;55.838;37.184;2022-10-16T10:15:54;100469.09;;;16.02;25.19
65534;BME280;53640;55.838;37.184;2022-10-16T10:18:22;100485.16;;;15.73;26.06
65534;BME280;53640;55.838;37.184;2022-10-16T10:21:00;100467.09;;;15.72;26.01
65534;BME280;53640;55.838;37.184;2022-10-16T10:23:30;100405.81;;;15.50;26.60
65534;BME280;53640;55.838;37.184;2022-10-16T10:54:06;100352.44;;;14.15;27.28
65534;BME280;53640;55.838;37.184;2022-10-16T11:02:26;100449.13;;;15.08;27.60
65534;BME280;53640;55.838;37.184;2022-10-16T11:05:51;100391.53;;;14.66;27.36
65534;BME280;53640;55.838;37.184;2022-10-16T11:10:05;100375.03;;;14.16;27.40
65534;BME280;53640;55.838;37.184;2022-10-16T11:13:10;100438.97;;;14.52;27.80
65534;BME280;53640;55.838;37.184;2022-10-16T11:16:51;100392.75;;;14.32;28.25
65534;BME280;53640;55.838;37.184;2022-10-16T11:25:29;100346.50;;;14.25;28.32
65534;BME280;53640;55.838;37.184;2022-10-16T11:30:51;100444.97;;;15.05;27.65
65534;BME280;53640;55.838;37.184;2022-10-16T11:42:33;100411.66;;;14.72;27.88
65534;BME280;53640;55.838;37.184;2022-10-16T11:45:35;100445.81;;;15.06;28.21
65534;BME280;53640;55.838;37.184;2022-10-16T11:48:35;100441.31;;;15.18;27.67
65534;BME280;53640;55.838;37.184;2022-10-16T11:51:28;100384.59;;;14.70;28.02
65534;BME280;53640;55.838;37.184;2022-10-16T11:54:36;100433.75;;;15.20;28.02
65534;BME280;53640;55.838;37.184;2022-10-16T11:57:19;100321.56;;;14.60;27.62
65534;BME280;53640;55.838;37.184;2022-10-16T11:59:57;100431.34;;;15.30;27.66
65534;BME280;53640;55.838;37.184;2022-10-16T12:02:40;100428.66;;;15.49;26.67
65534;BME280;53640;55.838;37.184;2022-10-16T12:08:47;100343.88;;;15.25;27.16
65534;BME280;53640;55.838;37.184;2022-10-16T12:23:56;100404.50;;;15.52;26.48
65534;BME280;53640;55.838;37.184;2022-10-16T12:26:37;100368.91;;;15.41;26.54
65534;BME280;53640;55.838;37.184;2022-10-16T12:29:38;100442.97;;;15.19;26.83
65534;BME280;53640;55.838;37.184;2022-10-16T12:32:28;100325.28;;;14.97;26.90
65534;BME280;53640;55.838;37.184;2022-10-16T12:34:58;100294.38;;;15.03;27.02
65534;BME280;53640;55.838;37.184;2022-10-16T12:37:28;100389.31;;;15.81;26.71
65534;BME280;53640;55.838;37.184;2022-10-16T12:39:58;100320.91;;;15.58;26.49
65534;BME280;53640;55.838;37.184;2022-10-16T12:45:00;100302.50;;;16.02;25.93
65534;BME280;53640;55.838;37.184;2022-10-16T12:47:53;100308.97;;;16.07;25.58
65534;BME280;53640;55.838;37.184;2022-10-16T12:50:37;100286.78;;;15.85;25.10
65534;BME280;53640;55.838;37.184;2022-10-16T12:53:21;100318.34;;;16.12;25.57
65534;BME280;53640;55.838;37.184;2022-10-16T12:56:09;100428.63;;;16.66;25.60
65534;BME280;53640;55.838;37.184;2022-10-16T12:59:08;100392.50;;;16.33;25.22
65534;BME280;53640;55.838;37.184;2022-10-16T13:07:31;100341.88;;;16.13;25.38
65534;BME280;53640;55.838;37.184;2022-10-16T13:18:40;100414.06;;;16.53;25.73
65534;BME280;53640;55.838;37.184;2022-10-16T13:26:55;100409.19;;;16.07;26.27
65534;BME280;53640;55.838;37.184;2022-10-16T13:29:23;100353.56;;;15.83;26.11
65534;BME280;53640;55.838;37.184;2022-10-16T13:31:52;100419.03;;;16.26;26.32
65534;BME280;53640;55.838;37.184;2022-10-16T13:34:20;100391.09;;;16.06;26.47
65534;BME280;53640;55.838;37.184;2022-10-16T13:37:21;100377.00;;;15.72;26.39
65534;BME280;53640;55.838;37.184;2022-10-16T13:39:48;100376.47;;;15.64;26.99
65534;BME280;53640;55.838;37.184;2022-10-16T13:45:20;100376.38;;;15.27;27.34
65534;BME280;53640;55.838;37.184;2022-10-16T13:47:47;100340.34;;;15.00;27.45
65534;BME280;53640;55.838;37.184;2022-10-16T13:50:17;100399.00;;;15.34;27.43
65534;BME280;53640;55.838;37.184;2022-10-16T13:52:46;100408.13;;;15.21;28.09
65534;BME280;53640;55.838;37.184;2022-10-16T13:55:18;100378.38;;;14.18;28.14
65534;BME280;53640;55.838;37.184;2022-10-16T13:57:45;100306.47;;;13.87;28.90
65534;BME280;53640;55.838;37.184;2022-10-16T14:00:28;100308.84;;;13.64;29.30
65534;BME280;53640;55.838;37.184;2022-10-16T14:03:19;100359.50;;;13.72;29.05
65534;BME280;53640;55.838;37.184;2022-10-16T14:06:10;100330.09;;;13.22;29.72
65534;BME280;53640;55.838;37.184;2022-10-16T14:08:43;100306.44;;;12.63;30.55
65534;BME280;53640;55.838;37.184;2022-10-16T14:11:22;100337.59;;;12.60;31.03
65534;BME280;53640;55.838;37.184;2022-10-16T14:13:53;100267.72;;;11.94;31.20
65534;BME280;53640;55.838;37.184;2022-10-16T14:16:26;100257.88;;;11.39;32.21
65534;BME280;53640;55.838;37.184;2022-10-16T14:19:45;100411.03;;;12.32;31.61
65534;BME280;53640;55.838;37.184;2022-10-16T14:28:17;100417.69;;;11.54;33.68
65534;BME280;53640;55.838;37.184;2022-10-16T14:31:19;100278.16;;;10.37;34.26
65534;BME280;53640;55.838;37.184;2022-10-16T14:33:48;100363.63;;;10.68;34.69
65534;BME280;53640;55.838;37.184;2022-10-16T14:36:30;100304.38;;;10.15;34.80
65534;BME280;53640;55.838;37.184;2022-10-16T14:39:19;100346.84;;;10.36;34.99
65534;BME280;53640;55.838;37.184;2022-10-16T14:41:51;100298.59;;;9.82;35.52
65534;BME280;53640;55.838;37.184;2022-10-16T14:44:18;100345.31;;;9.91;36.26
65534;BME280;53640;55.838;37.184;2022-10-16T14:46:49;100268.91;;;9.38;35.85
65534;BME280;53640;55.838;37.184;2022-10-16T14:49:18;100263.50;;;9.23;36.23
65534;BME280;53640;55.838;37.184;2022-10-16T14:51:47;100295.09;;;9.22;36.77
65534;BME280;53640;55.838;37.184;2022-10-16T14:54:17;100379.53;;;9.69;36.78
65534;BME280;53640;55.838;37.184;2022-10-16T14:56:50;100342.78;;;9.30;37.16
65534;BME280;53640;55.838;37.184;2022-10-16T14:59:45;100283.22;;;8.94;37.22
65534;BME280;53640;55.838;37.184;2022-10-16T15:02:30;100348.94;;;8.86;38.73
65534;BME280;53640;55.838;37.184;2022-10-16T15:08:21;100273.19;;;8.27;39.17
65534;BME280;53640;55.838;37.184;2022-10-16T15:11:21;100287.09;;;8.39;39.05
65534;BME280;53640;55.838;37.184;2022-10-16T15:14:22;100278.63;;;8.19;39.12
65534;BME280;53640;55.838;37.184;2022-10-16T15:16:49;100256.56;;;7.92;39.28
65534;BME280;53640;55.838;37.184;2022-10-16T15:19:31;100366.34;;;8.60;39.48
65534;BME280;53640;55.838;37.184;2022-10-16T15:22:03;100331.16;;;8.31;39.69
65534;BME280;53640;55.838;37.184;2022-10-16T15:24:42;100367.66;;;8.65;39.02
65534;BME280;53640;55.838;37.184;2022-10-16T15:27:21;100324.78;;;8.24;39.50
65534;BME280;53640;55.838;37.184;2022-10-16T15:30:01;100346.03;;;8.19;40.39
65534;BME280;53640;55.838;37.184;2022-10-16T15:32:31;100338.91;;;8.03;39.99
65534;BME280;53640;55.838;37.184;2022-10-16T15:35:01;100306.28;;;8.12;39.86
65534;BME280;53640;55.838;37.184;2022-10-16T15:37:36;100377.22;;;8.52;39.76
65534;BME280;53640;55.838;37.184;2022-10-16T15:40:18;100425.16;;;8.73;39.99
65534;BME280;53640;55.838;37.184;2022-10-16T15:42:53;100259.19;;;7.46;40.74
65534;BME280;53640;55.838;37.184;2022-10-16T15:46:05;100419.22;;;8.55;40.63
65534;BME280;53640;55.838;37.184;2022-10-16T15:48:43;100282.16;;;7.65;41.06
65534;BME280;53640;55.838;37.184;2022-10-16T15:51:16;100271.22;;;7.58;41.08
65534;BME280;53640;55.838;37.184;2022-10-16T15:53:49;100267.34;;;7.22;41.91
65534;BME280;53640;55.838;37.184;2022-10-16T15:56:23;100267.72;;;7.10;42.29
65534;BME280;53640;55.838;37.184;2022-10-16T15:59:08;100265.84;;;7.19;41.68
65534;BME280;53640;55.838;37.184;2022-10-16T16:04:30;100249.25;;;6.91;41.87
65534;BME280;53640;55.838;37.184;2022-10-16T16:07:49;100416.91;;;8.04;41.80
65534;BME280;53640;55.838;37.184;2022-10-16T16:11:04;100313.59;;;7.25;41.95
65534;BME280;53640;55.838;37.184;2022-10-16T16:13:41;100330.41;;;7.35;41.93
65534;BME280;53640;55.838;37.184;2022-10-16T16:16:10;100332.16;;;7.20;42.44
65534;BME280;53640;55.838;37.184;2022-10-16T16:18:42;100340.38;;;7.27;42.35
65534;BME280;53640;55.838;37.184;2022-10-16T16:21:10;100306.44;;;6.77;42.91
65534;BME280;53640;55.838;37.184;2022-10-16T16:23:38;100286.28;;;6.56;43.55
65534;BME280;53640;55.838;37.184;2022-10-16T16:26:29;100330.34;;;7.04;42.52
65534;BME280;53640;55.838;37.184;2022-10-16T16:29:04;100279.06;;;6.57;42.88
65534;BME280;53640;55.838;37.184;2022-10-16T16:31:49;100337.03;;;7.17;42.43
65534;BME280;53640;55.838;37.184;2022-10-16T16:34:29;100286.63;;;6.86;42.42
65534;BME280;53640;55.838;37.184;2022-10-16T16:37:06;100325.59;;;7.06;42.59
65534;BME280;53640;55.838;37.184;2022-10-16T16:43:41;100422.13;;;7.58;42.62
65534;BME280;53640;55.838;37.184;2022-10-16T16:46:10;100328.13;;;7.00;43.18
65534;BME280;53640;55.838;37.184;2022-10-16T16:48:47;100309.50;;;6.74;43.49
65534;BME280;53640;55.838;37.184;2022-10-16T16:54:15;100437.00;;;7.38;43.79
65534;BME280;53640;55.838;37.184;2022-10-16T16:56:42;100348.84;;;6.91;42.89
65534;BME280;53640;55.838;37.184;2022-10-16T16:59:13;100315.88;;;6.64;43.82